sensor_id;sensor_type;location;lat;lon;timestamp;temperature;humidity
19340;HTU21D;9804;52.350;6.684;2023-08-06T00:01:24;17.72;118.99
19340;HTU21D;9804;52.350;6.684;2023-08-06T00:03:51;17.63;118.99
19340;HTU21D;9804;52.350;6.684;2023-08-06T00:06:16;17.63;118.99
19340;HTU21D;9804;52.350;6.684;2023-08-06T00:08:42;17.79;118.99
19340;HTU21D;9804;52.350;6.684;2023-08-06T00:11:07;17.56;118.99
19340;HTU21D;9804;52.350;6.684;2023-08-06T00:13:32;17.60;118.99
19340;HTU21D;9804;52.350;6.684;2023-08-06T00:16:11;17.66;118.99
19340;HTU21D;9804;52.350;6.684;2023-08-06T00:18:37;17.60;118.99
19340;HTU21D;9804;52.350;6.684;2023-08-06T00:21:02;17.56;118.99
19340;HTU21D;9804;52.350;6.684;2023-08-06T00:23:28;17.58;118.99
19340;HTU21D;9804;52.350;6.684;2023-08-06T00:25:53;17.46;118.99
19340;HTU21D;9804;52.350;6.684;2023-08-06T00:28:18;17.48;118.99
19340;HTU21D;9804;52.350;6.684;2023-08-06T00:30:44;17.47;118.99
19340;HTU21D;9804;52.350;6.684;2023-08-06T00:33:09;17.53;118.99
19340;HTU21D;9804;52.350;6.684;2023-08-06T00:35:35;17.68;118.99
19340;HTU21D;9804;52.350;6.684;2023-08-06T00:38:00;17.60;118.99
19340;HTU21D;9804;52.350;6.684;2023-08-06T00:40:25;17.61;118.99
19340;HTU21D;9804;52.350;6.684;2023-08-06T00:42:53;17.63;118.99
19340;HTU21D;9804;52.350;6.684;2023-08-06T00:45:18;17.61;118.99
19340;HTU21D;9804;52.350;6.684;2023-08-06T00:47:44;17.56;118.99
19340;HTU21D;9804;52.350;6.684;2023-08-06T00:50:11;17.56;118.99
19340;HTU21D;9804;52.350;6.684;2023-08-06T00:52:36;17.55;118.99
19340;HTU21D;9804;52.350;6.684;2023-08-06T00:55:03;17.53;118.99
19340;HTU21D;9804;52.350;6.684;2023-08-06T00:57:29;17.51;118.99
19340;HTU21D;9804;52.350;6.684;2023-08-06T00:59:54;17.59;118.99
19340;HTU21D;9804;52.350;6.684;2023-08-06T01:02:20;17.37;118.99
19340;HTU21D;9804;52.350;6.684;2023-08-06T01:04:45;17.48;118.99
19340;HTU21D;9804;52.350;6.684;2023-08-06T01:07:25;17.49;118.99
19340;HTU21D;9804;52.350;6.684;2023-08-06T01:13:08;17.47;118.99
19340;HTU21D;9804;52.350;6.684;2023-08-06T01:15:41;17.46;118.99
19340;HTU21D;9804;52.350;6.684;2023-08-06T01:18:09;17.35;118.99
19340;HTU21D;9804;52.350;6.684;2023-08-06T01:20:35;17.39;118.99
19340;HTU21D;9804;52.350;6.684;2023-08-06T01:23:00;17.44;118.99
19340;HTU21D;9804;52.350;6.684;2023-08-06T01:25:32;17.41;118.99
19340;HTU21D;9804;52.350;6.684;2023-08-06T01:28:06;17.41;118.99
19340;HTU21D;9804;52.350;6.684;2023-08-06T01:30:38;17.41;118.99
19340;HTU21D;9804;52.350;6.684;2023-08-06T01:33:09;17.43;118.99
19340;HTU21D;9804;52.350;6.684;2023-08-06T01:35:40;17.40;118.99
19340;HTU21D;9804;52.350;6.684;2023-08-06T01:38:06;17.43;118.99
19340;HTU21D;9804;52.350;6.684;2023-08-06T01:40:31;17.36;118.99
19340;HTU21D;9804;52.350;6.684;2023-08-06T01:42:57;17.46;118.99
19340;HTU21D;9804;52.350;6.684;2023-08-06T01:45:23;17.36;118.99
19340;HTU21D;9804;52.350;6.684;2023-08-06T01:47:48;17.39;118.99
19340;HTU21D;9804;52.350;6.684;2023-08-06T01:50:13;17.36;118.99
19340;HTU21D;9804;52.350;6.684;2023-08-06T01:52:39;17.43;118.99
19340;HTU21D;9804;52.350;6.684;2023-08-06T01:55:04;17.45;118.99
19340;HTU21D;9804;52.350;6.684;2023-08-06T01:57:30;17.37;118.99
19340;HTU21D;9804;52.350;6.684;2023-08-06T01:59:55;17.29;118.99
19340;HTU21D;9804;52.350;6.684;2023-08-06T02:02:20;17.28;118.99
19340;HTU21D;9804;52.350;6.684;2023-08-06T02:04:46;17.29;118.99
19340;HTU21D;9804;52.350;6.684;2023-08-06T02:07:11;17.32;118.99
19340;HTU21D;9804;52.350;6.684;2023-08-06T02:09:37;17.29;118.99
19340;HTU21D;9804;52.350;6.684;2023-08-06T02:12:02;17.31;118.99
19340;HTU21D;9804;52.350;6.684;2023-08-06T02:14:28;17.26;118.99
19340;HTU21D;9804;52.350;6.684;2023-08-06T02:16:53;17.23;118.99
19340;HTU21D;9804;52.350;6.684;2023-08-06T02:19:18;17.31;118.99
19340;HTU21D;9804;52.350;6.684;2023-08-06T02:21:44;17.32;118.99
19340;HTU21D;9804;52.350;6.684;2023-08-06T02:24:09;17.31;118.99
19340;HTU21D;9804;52.350;6.684;2023-08-06T02:26:35;17.19;118.99
19340;HTU21D;9804;52.350;6.684;2023-08-06T02:29:00;17.20;118.99
19340;HTU21D;9804;52.350;6.684;2023-08-06T02:31:25;17.25;118.99
19340;HTU21D;9804;52.350;6.684;2023-08-06T02:33:51;17.29;118.99
19340;HTU21D;9804;52.350;6.684;2023-08-06T02:36:17;17.38;118.99
19340;HTU21D;9804;52.350;6.684;2023-08-06T02:38:42;17.33;118.99
19340;HTU21D;9804;52.350;6.684;2023-08-06T02:41:07;17.30;118.99
19340;HTU21D;9804;52.350;6.684;2023-08-06T02:43:33;17.30;118.99
19340;HTU21D;9804;52.350;6.684;2023-08-06T02:45:59;17.33;118.99
19340;HTU21D;9804;52.350;6.684;2023-08-06T02:48:25;17.28;118.99
19340;HTU21D;9804;52.350;6.684;2023-08-06T02:50:50;17.23;118.99
19340;HTU21D;9804;52.350;6.684;2023-08-06T02:53:15;17.19;118.99
19340;HTU21D;9804;52.350;6.684;2023-08-06T02:55:46;17.20;118.99
19340;HTU21D;9804;52.350;6.684;2023-08-06T02:58:13;17.23;118.99
19340;HTU21D;9804;52.350;6.684;2023-08-06T03:00:38;17.17;118.99
19340;HTU21D;9804;52.350;6.684;2023-08-06T03:03:03;17.24;118.99
19340;HTU21D;9804;52.350;6.684;2023-08-06T03:05:29;17.31;118.99
19340;HTU21D;9804;52.350;6.684;2023-08-06T03:07:54;17.37;118.99
19340;HTU21D;9804;52.350;6.684;2023-08-06T03:10:19;17.26;118.99
19340;HTU21D;9804;52.350;6.684;2023-08-06T03:12:45;17.29;118.99
19340;HTU21D;9804;52.350;6.684;2023-08-06T03:15:10;17.31;118.99
19340;HTU21D;9804;52.350;6.684;2023-08-06T03:17:36;17.29;118.99
19340;HTU21D;9804;52.350;6.684;2023-08-06T03:20:01;17.44;118.99
19340;HTU21D;9804;52.350;6.684;2023-08-06T03:22:27;17.32;118.99
19340;HTU21D;9804;52.350;6.684;2023-08-06T03:24:52;17.33;118.99
19340;HTU21D;9804;52.350;6.684;2023-08-06T03:27:17;17.32;118.99
19340;HTU21D;9804;52.350;6.684;2023-08-06T03:29:43;17.33;118.99
19340;HTU21D;9804;52.350;6.684;2023-08-06T03:32:08;17.43;118.99
19340;HTU21D;9804;52.350;6.684;2023-08-06T03:34:34;17.38;118.99
19340;HTU21D;9804;52.350;6.684;2023-08-06T03:37:00;17.34;118.99
19340;HTU21D;9804;52.350;6.684;2023-08-06T03:39:25;17.39;118.99
19340;HTU21D;9804;52.350;6.684;2023-08-06T03:41:51;17.30;118.99
19340;HTU21D;9804;52.350;6.684;2023-08-06T03:44:16;17.28;118.99
19340;HTU21D;9804;52.350;6.684;2023-08-06T03:46:41;17.26;118.99
19340;HTU21D;9804;52.350;6.684;2023-08-06T03:49:07;17.29;118.99
19340;HTU21D;9804;52.350;6.684;2023-08-06T03:51:32;17.28;118.99
19340;HTU21D;9804;52.350;6.684;2023-08-06T03:53:57;17.31;118.99
19340;HTU21D;9804;52.350;6.684;2023-08-06T03:56:23;17.36;118.99
19340;HTU21D;9804;52.350;6.684;2023-08-06T03:58:48;17.34;118.99
19340;HTU21D;9804;52.350;6.684;2023-08-06T04:01:14;17.40;118.99
19340;HTU21D;9804;52.350;6.684;2023-08-06T04:03:39;17.38;118.99
19340;HTU21D;9804;52.350;6.684;2023-08-06T04:06:04;17.30;118.99
19340;HTU21D;9804;52.350;6.684;2023-08-06T04:08:30;17.33;118.99
19340;HTU21D;9804;52.350;6.684;2023-08-06T04:10:55;17.35;118.99
19340;HTU21D;9804;52.350;6.684;2023-08-06T04:13:20;17.22;118.99
19340;HTU21D;9804;52.350;6.684;2023-08-06T04:15:46;17.31;118.99
19340;HTU21D;9804;52.350;6.684;2023-08-06T04:18:12;17.38;118.99
19340;HTU21D;9804;52.350;6.684;2023-08-06T04:20:47;17.31;118.99
19340;HTU21D;9804;52.350;6.684;2023-08-06T04:23:14;17.41;118.99
19340;HTU21D;9804;52.350;6.684;2023-08-06T04:25:40;17.48;118.99
19340;HTU21D;9804;52.350;6.684;2023-08-06T04:28:05;17.45;118.99
19340;HTU21D;9804;52.350;6.684;2023-08-06T04:30:31;17.45;118.99
19340;HTU21D;9804;52.350;6.684;2023-08-06T04:32:57;17.39;118.99
19340;HTU21D;9804;52.350;6.684;2023-08-06T04:35:23;17.41;118.99
19340;HTU21D;9804;52.350;6.684;2023-08-06T04:37:48;17.45;118.99
19340;HTU21D;9804;52.350;6.684;2023-08-06T04:40:14;17.38;118.99
19340;HTU21D;9804;52.350;6.684;2023-08-06T04:42:39;17.58;118.99
19340;HTU21D;9804;52.350;6.684;2023-08-06T04:45:05;17.59;118.99
19340;HTU21D;9804;52.350;6.684;2023-08-06T04:47:31;17.43;118.99
19340;HTU21D;9804;52.350;6.684;2023-08-06T04:49:56;17.49;118.99
19340;HTU21D;9804;52.350;6.684;2023-08-06T04:52:21;17.61;118.99
19340;HTU21D;9804;52.350;6.684;2023-08-06T04:54:47;17.60;118.99
19340;HTU21D;9804;52.350;6.684;2023-08-06T04:57:12;17.77;118.99
19340;HTU21D;9804;52.350;6.684;2023-08-06T04:59:38;17.73;118.99
19340;HTU21D;9804;52.350;6.684;2023-08-06T05:02:04;17.76;118.99
19340;HTU21D;9804;52.350;6.684;2023-08-06T05:04:29;17.78;118.99
19340;HTU21D;9804;52.350;6.684;2023-08-06T05:06:55;17.78;118.99
19340;HTU21D;9804;52.350;6.684;2023-08-06T05:09:20;17.80;118.99
19340;HTU21D;9804;52.350;6.684;2023-08-06T05:11:46;17.96;118.99
19340;HTU21D;9804;52.350;6.684;2023-08-06T05:14:12;17.95;118.99
19340;HTU21D;9804;52.350;6.684;2023-08-06T05:16:37;17.98;118.99
19340;HTU21D;9804;52.350;6.684;2023-08-06T05:19:02;18.10;118.99
19340;HTU21D;9804;52.350;6.684;2023-08-06T05:21:28;18.25;118.99
19340;HTU21D;9804;52.350;6.684;2023-08-06T05:23:54;18.08;118.99
19340;HTU21D;9804;52.350;6.684;2023-08-06T05:26:19;18.26;118.99
19340;HTU21D;9804;52.350;6.684;2023-08-06T05:28:45;18.35;118.99
19340;HTU21D;9804;52.350;6.684;2023-08-06T05:31:11;18.29;118.99
19340;HTU21D;9804;52.350;6.684;2023-08-06T05:33:36;18.43;118.99
19340;HTU21D;9804;52.350;6.684;2023-08-06T05:36:01;18.42;118.99
19340;HTU21D;9804;52.350;6.684;2023-08-06T05:38:27;18.48;118.99
19340;HTU21D;9804;52.350;6.684;2023-08-06T05:40:52;18.54;118.99
19340;HTU21D;9804;52.350;6.684;2023-08-06T05:43:18;18.70;118.99
19340;HTU21D;9804;52.350;6.684;2023-08-06T05:45:46;18.85;118.99
19340;HTU21D;9804;52.350;6.684;2023-08-06T05:48:14;18.81;118.99
19340;HTU21D;9804;52.350;6.684;2023-08-06T05:50:39;18.74;118.99
19340;HTU21D;9804;52.350;6.684;2023-08-06T05:53:05;19.00;118.99
19340;HTU21D;9804;52.350;6.684;2023-08-06T05:55:30;19.07;118.99
19340;HTU21D;9804;52.350;6.684;2023-08-06T05:57:57;19.10;118.99
19340;HTU21D;9804;52.350;6.684;2023-08-06T06:00:22;19.22;118.99
19340;HTU21D;9804;52.350;6.684;2023-08-06T06:02:48;19.21;118.99
19340;HTU21D;9804;52.350;6.684;2023-08-06T06:05:13;19.22;118.99
19340;HTU21D;9804;52.350;6.684;2023-08-06T06:07:39;19.37;118.99
19340;HTU21D;9804;52.350;6.684;2023-08-06T06:10:04;19.32;118.99
19340;HTU21D;9804;52.350;6.684;2023-08-06T06:12:30;19.53;118.99
19340;HTU21D;9804;52.350;6.684;2023-08-06T06:14:55;19.68;118.99
19340;HTU21D;9804;52.350;6.684;2023-08-06T06:17:21;19.62;118.99
19340;HTU21D;9804;52.350;6.684;2023-08-06T06:19:47;19.76;118.99
19340;HTU21D;9804;52.350;6.684;2023-08-06T06:22:12;19.65;104.61
19340;HTU21D;9804;52.350;6.684;2023-08-06T06:24:37;19.82;83.45
19340;HTU21D;9804;52.350;6.684;2023-08-06T06:27:03;19.88;82.23
19340;HTU21D;9804;52.350;6.684;2023-08-06T06:29:29;20.03;100.13
19340;HTU21D;9804;52.350;6.684;2023-08-06T06:31:54;20.26;102.26
19340;HTU21D;9804;52.350;6.684;2023-08-06T06:34:19;20.22;25.20
19340;HTU21D;9804;52.350;6.684;2023-08-06T06:36:45;20.35;23.12
19340;HTU21D;9804;52.350;6.684;2023-08-06T06:39:10;20.19;-6.00
19340;HTU21D;9804;52.350;6.684;2023-08-06T06:41:35;20.47;0.35
19340;HTU21D;9804;52.350;6.684;2023-08-06T06:44:01;20.59;-4.95
19340;HTU21D;9804;52.350;6.684;2023-08-06T06:46:26;20.53;-6.00
19340;HTU21D;9804;52.350;6.684;2023-08-06T06:48:51;20.65;-6.00
19340;HTU21D;9804;52.350;6.684;2023-08-06T06:51:17;20.58;-6.00
19340;HTU21D;9804;52.350;6.684;2023-08-06T06:53:42;20.59;-6.00
19340;HTU21D;9804;52.350;6.684;2023-08-06T06:56:08;20.73;-6.00
19340;HTU21D;9804;52.350;6.684;2023-08-06T06:58:33;20.81;-6.00
19340;HTU21D;9804;52.350;6.684;2023-08-06T07:00:59;20.60;-6.00
19340;HTU21D;9804;52.350;6.684;2023-08-06T07:03:24;20.39;-6.00
19340;HTU21D;9804;52.350;6.684;2023-08-06T07:05:50;20.49;-6.00
19340;HTU21D;9804;52.350;6.684;2023-08-06T07:08:15;20.55;-6.00
19340;HTU21D;9804;52.350;6.684;2023-08-06T07:10:41;20.50;-6.00
19340;HTU21D;9804;52.350;6.684;2023-08-06T07:13:07;20.59;0.32
19340;HTU21D;9804;52.350;6.684;2023-08-06T07:15:33;20.92;-6.00
19340;HTU21D;9804;52.350;6.684;2023-08-06T07:17:58;20.77;-6.00
19340;HTU21D;9804;52.350;6.684;2023-08-06T07:20:23;20.70;-6.00
19340;HTU21D;9804;52.350;6.684;2023-08-06T07:22:49;20.84;-6.00
19340;HTU21D;9804;52.350;6.684;2023-08-06T07:25:15;20.85;-6.00
19340;HTU21D;9804;52.350;6.684;2023-08-06T07:27:41;20.81;-6.00
19340;HTU21D;9804;52.350;6.684;2023-08-06T07:30:07;20.76;-6.00
19340;HTU21D;9804;52.350;6.684;2023-08-06T07:32:32;20.65;-6.00
19340;HTU21D;9804;52.350;6.684;2023-08-06T07:34:57;20.48;-6.00
19340;HTU21D;9804;52.350;6.684;2023-08-06T07:37:29;20.65;-6.00
19340;HTU21D;9804;52.350;6.684;2023-08-06T07:39:55;20.86;-6.00
19340;HTU21D;9804;52.350;6.684;2023-08-06T07:42:21;20.71;-6.00
19340;HTU21D;9804;52.350;6.684;2023-08-06T07:44:54;20.96;-6.00
19340;HTU21D;9804;52.350;6.684;2023-08-06T07:47:20;21.34;-6.00
19340;HTU21D;9804;52.350;6.684;2023-08-06T07:49:46;21.19;-6.00
19340;HTU21D;9804;52.350;6.684;2023-08-06T07:52:11;21.20;-6.00
19340;HTU21D;9804;52.350;6.684;2023-08-06T07:54:36;21.01;-6.00
19340;HTU21D;9804;52.350;6.684;2023-08-06T07:57:02;21.03;-6.00
19340;HTU21D;9804;52.350;6.684;2023-08-06T07:59:27;21.37;-6.00
19340;HTU21D;9804;52.350;6.684;2023-08-06T08:01:53;21.47;-6.00
19340;HTU21D;9804;52.350;6.684;2023-08-06T08:04:18;21.58;-6.00
19340;HTU21D;9804;52.350;6.684;2023-08-06T08:06:43;21.30;-6.00
19340;HTU21D;9804;52.350;6.684;2023-08-06T08:09:09;21.51;-6.00
19340;HTU21D;9804;52.350;6.684;2023-08-06T08:11:34;21.68;-6.00
19340;HTU21D;9804;52.350;6.684;2023-08-06T08:13:59;21.59;-6.00
19340;HTU21D;9804;52.350;6.684;2023-08-06T08:16:25;21.58;-6.00
19340;HTU21D;9804;52.350;6.684;2023-08-06T08:18:50;21.34;-6.00
19340;HTU21D;9804;52.350;6.684;2023-08-06T08:21:15;21.09;-6.00
19340;HTU21D;9804;52.350;6.684;2023-08-06T08:23:41;21.18;-6.00
19340;HTU21D;9804;52.350;6.684;2023-08-06T08:26:07;21.36;-6.00
19340;HTU21D;9804;52.350;6.684;2023-08-06T08:28:33;21.51;-6.00
19340;HTU21D;9804;52.350;6.684;2023-08-06T08:30:58;21.78;-6.00
19340;HTU21D;9804;52.350;6.684;2023-08-06T08:33:23;21.92;-6.00
19340;HTU21D;9804;52.350;6.684;2023-08-06T08:35:49;22.01;-6.00
19340;HTU21D;9804;52.350;6.684;2023-08-06T08:38:14;21.96;-6.00
19340;HTU21D;9804;52.350;6.684;2023-08-06T08:40:45;21.82;-6.00
19340;HTU21D;9804;52.350;6.684;2023-08-06T08:43:12;22.13;-6.00
19340;HTU21D;9804;52.350;6.684;2023-08-06T08:45:39;22.20;-6.00
19340;HTU21D;9804;52.350;6.684;2023-08-06T08:48:05;22.33;-6.00
19340;HTU21D;9804;52.350;6.684;2023-08-06T08:50:31;22.23;-6.00
19340;HTU21D;9804;52.350;6.684;2023-08-06T08:52:57;22.33;-6.00
19340;HTU21D;9804;52.350;6.684;2023-08-06T08:55:22;22.57;-6.00
19340;HTU21D;9804;52.350;6.684;2023-08-06T08:57:48;22.63;-6.00
19340;HTU21D;9804;52.350;6.684;2023-08-06T09:00:13;22.64;-6.00
19340;HTU21D;9804;52.350;6.684;2023-08-06T09:02:40;22.18;-6.00
19340;HTU21D;9804;52.350;6.684;2023-08-06T09:05:06;22.05;-6.00
19340;HTU21D;9804;52.350;6.684;2023-08-06T09:07:35;22.33;-6.00
19340;HTU21D;9804;52.350;6.684;2023-08-06T09:10:04;22.53;-6.00
19340;HTU21D;9804;52.350;6.684;2023-08-06T09:12:31;22.77;-6.00
19340;HTU21D;9804;52.350;6.684;2023-08-06T09:14:57;22.77;-6.00
19340;HTU21D;9804;52.350;6.684;2023-08-06T09:17:22;22.41;-6.00
19340;HTU21D;9804;52.350;6.684;2023-08-06T09:19:48;22.90;-6.00
19340;HTU21D;9804;52.350;6.684;2023-08-06T09:22:15;23.15;-6.00
19340;HTU21D;9804;52.350;6.684;2023-08-06T09:24:43;23.50;-6.00
19340;HTU21D;9804;52.350;6.684;2023-08-06T09:27:12;23.16;-6.00
19340;HTU21D;9804;52.350;6.684;2023-08-06T09:29:43;23.18;-6.00
19340;HTU21D;9804;52.350;6.684;2023-08-06T09:32:09;23.14;-6.00
19340;HTU21D;9804;52.350;6.684;2023-08-06T09:34:34;23.10;-6.00
19340;HTU21D;9804;52.350;6.684;2023-08-06T09:36:59;23.03;-6.00
19340;HTU21D;9804;52.350;6.684;2023-08-06T09:39:27;23.18;-6.00
19340;HTU21D;9804;52.350;6.684;2023-08-06T09:42:00;23.60;-6.00
19340;HTU21D;9804;52.350;6.684;2023-08-06T09:44:27;23.49;-6.00
19340;HTU21D;9804;52.350;6.684;2023-08-06T09:46:55;23.01;-6.00
19340;HTU21D;9804;52.350;6.684;2023-08-06T09:49:41;23.45;-6.00
19340;HTU21D;9804;52.350;6.684;2023-08-06T09:52:12;23.84;-6.00
19340;HTU21D;9804;52.350;6.684;2023-08-06T09:54:38;23.95;-6.00
19340;HTU21D;9804;52.350;6.684;2023-08-06T09:57:03;23.64;-6.00
19340;HTU21D;9804;52.350;6.684;2023-08-06T09:59:32;23.65;-6.00
19340;HTU21D;9804;52.350;6.684;2023-08-06T10:01:57;23.88;-6.00
19340;HTU21D;9804;52.350;6.684;2023-08-06T10:04:23;24.01;-6.00
19340;HTU21D;9804;52.350;6.684;2023-08-06T10:06:49;23.97;-6.00
19340;HTU21D;9804;52.350;6.684;2023-08-06T10:09:14;23.89;-6.00
19340;HTU21D;9804;52.350;6.684;2023-08-06T10:11:42;24.04;-6.00
19340;HTU21D;9804;52.350;6.684;2023-08-06T10:14:14;24.16;-6.00
19340;HTU21D;9804;52.350;6.684;2023-08-06T10:16:41;23.74;-6.00
19340;HTU21D;9804;52.350;6.684;2023-08-06T10:19:09;24.21;-6.00
19340;HTU21D;9804;52.350;6.684;2023-08-06T10:21:35;24.44;-6.00
19340;HTU21D;9804;52.350;6.684;2023-08-06T10:24:01;24.76;-6.00
19340;HTU21D;9804;52.350;6.684;2023-08-06T10:26:29;24.77;-6.00
19340;HTU21D;9804;52.350;6.684;2023-08-06T10:28:55;24.27;-6.00
19340;HTU21D;9804;52.350;6.684;2023-08-06T10:31:53;24.36;-6.00
19340;HTU21D;9804;52.350;6.684;2023-08-06T10:34:18;23.82;-6.00
19340;HTU21D;9804;52.350;6.684;2023-08-06T10:36:44;24.33;-6.00
19340;HTU21D;9804;52.350;6.684;2023-08-06T10:39:13;24.65;-6.00
19340;HTU21D;9804;52.350;6.684;2023-08-06T10:41:42;25.10;-6.00
19340;HTU21D;9804;52.350;6.684;2023-08-06T10:44:09;25.54;-6.00
19340;HTU21D;9804;52.350;6.684;2023-08-06T10:46:35;25.86;-6.00
19340;HTU21D;9804;52.350;6.684;2023-08-06T10:49:01;25.19;-6.00
19340;HTU21D;9804;52.350;6.684;2023-08-06T10:51:26;24.94;-6.00
19340;HTU21D;9804;52.350;6.684;2023-08-06T10:53:53;25.13;-6.00
19340;HTU21D;9804;52.350;6.684;2023-08-06T10:56:20;25.67;-6.00
19340;HTU21D;9804;52.350;6.684;2023-08-06T10:58:48;25.78;-6.00
19340;HTU21D;9804;52.350;6.684;2023-08-06T11:01:14;25.75;-6.00
19340;HTU21D;9804;52.350;6.684;2023-08-06T11:03:44;25.87;-6.00
19340;HTU21D;9804;52.350;6.684;2023-08-06T11:06:10;25.71;-6.00
19340;HTU21D;9804;52.350;6.684;2023-08-06T11:08:38;25.72;-6.00
19340;HTU21D;9804;52.350;6.684;2023-08-06T11:11:14;25.74;-6.00
19340;HTU21D;9804;52.350;6.684;2023-08-06T11:13:40;25.48;-6.00
19340;HTU21D;9804;52.350;6.684;2023-08-06T11:16:06;25.10;-6.00
19340;HTU21D;9804;52.350;6.684;2023-08-06T11:18:35;25.18;-6.00
19340;HTU21D;9804;52.350;6.684;2023-08-06T11:21:01;24.74;-6.00
19340;HTU21D;9804;52.350;6.684;2023-08-06T11:23:27;24.60;-6.00
19340;HTU21D;9804;52.350;6.684;2023-08-06T11:25:54;24.83;-6.00
19340;HTU21D;9804;52.350;6.684;2023-08-06T11:28:20;24.57;-6.00
19340;HTU21D;9804;52.350;6.684;2023-08-06T11:30:49;24.80;-6.00
19340;HTU21D;9804;52.350;6.684;2023-08-06T11:33:20;24.80;-6.00
19340;HTU21D;9804;52.350;6.684;2023-08-06T11:35:45;24.70;-6.00
19340;HTU21D;9804;52.350;6.684;2023-08-06T11:38:13;25.18;-6.00
19340;HTU21D;9804;52.350;6.684;2023-08-06T11:40:38;25.72;-6.00
19340;HTU21D;9804;52.350;6.684;2023-08-06T11:43:05;25.83;-6.00
19340;HTU21D;9804;52.350;6.684;2023-08-06T11:45:30;25.49;-6.00
19340;HTU21D;9804;52.350;6.684;2023-08-06T11:47:56;24.59;-6.00
19340;HTU21D;9804;52.350;6.684;2023-08-06T11:50:30;25.12;-6.00
19340;HTU21D;9804;52.350;6.684;2023-08-06T11:52:57;24.94;-6.00
19340;HTU21D;9804;52.350;6.684;2023-08-06T11:55:24;24.95;-6.00
19340;HTU21D;9804;52.350;6.684;2023-08-06T11:57:50;24.92;-6.00
19340;HTU21D;9804;52.350;6.684;2023-08-06T12:00:16;25.09;-6.00
19340;HTU21D;9804;52.350;6.684;2023-08-06T12:02:48;24.41;-6.00
19340;HTU21D;9804;52.350;6.684;2023-08-06T12:05:18;24.71;-6.00
19340;HTU21D;9804;52.350;6.684;2023-08-06T12:07:56;24.48;-6.00
19340;HTU21D;9804;52.350;6.684;2023-08-06T12:10:24;24.66;-6.00
19340;HTU21D;9804;52.350;6.684;2023-08-06T12:12:50;24.63;-6.00
19340;HTU21D;9804;52.350;6.684;2023-08-06T12:15:16;24.59;-6.00
19340;HTU21D;9804;52.350;6.684;2023-08-06T12:17:42;24.45;-6.00
19340;HTU21D;9804;52.350;6.684;2023-08-06T12:20:08;24.51;-6.00
19340;HTU21D;9804;52.350;6.684;2023-08-06T12:22:34;24.62;-6.00
19340;HTU21D;9804;52.350;6.684;2023-08-06T12:25:05;24.84;-6.00
19340;HTU21D;9804;52.350;6.684;2023-08-06T12:27:37;24.86;-6.00
19340;HTU21D;9804;52.350;6.684;2023-08-06T12:30:04;24.71;-6.00
19340;HTU21D;9804;52.350;6.684;2023-08-06T12:32:29;24.65;-6.00
19340;HTU21D;9804;52.350;6.684;2023-08-06T12:34:55;24.72;-6.00
19340;HTU21D;9804;52.350;6.684;2023-08-06T12:37:20;24.65;-6.00
19340;HTU21D;9804;52.350;6.684;2023-08-06T12:39:46;24.94;-6.00
19340;HTU21D;9804;52.350;6.684;2023-08-06T12:42:12;24.66;-6.00
19340;HTU21D;9804;52.350;6.684;2023-08-06T12:44:37;24.70;-6.00
19340;HTU21D;9804;52.350;6.684;2023-08-06T12:47:02;25.04;-6.00
19340;HTU21D;9804;52.350;6.684;2023-08-06T12:49:28;24.66;-6.00
19340;HTU21D;9804;52.350;6.684;2023-08-06T12:51:54;24.55;-6.00
19340;HTU21D;9804;52.350;6.684;2023-08-06T12:54:20;24.93;-6.00
19340;HTU21D;9804;52.350;6.684;2023-08-06T12:56:46;25.09;-6.00
19340;HTU21D;9804;52.350;6.684;2023-08-06T12:59:14;25.34;-6.00
19340;HTU21D;9804;52.350;6.684;2023-08-06T13:01:40;25.30;-6.00
19340;HTU21D;9804;52.350;6.684;2023-08-06T13:04:05;25.29;-6.00
19340;HTU21D;9804;52.350;6.684;2023-08-06T13:06:31;24.84;-6.00
19340;HTU21D;9804;52.350;6.684;2023-08-06T13:09:01;24.84;-6.00
19340;HTU21D;9804;52.350;6.684;2023-08-06T13:11:26;24.50;-6.00
19340;HTU21D;9804;52.350;6.684;2023-08-06T13:13:52;24.43;-6.00
19340;HTU21D;9804;52.350;6.684;2023-08-06T13:16:17;24.77;-6.00
19340;HTU21D;9804;52.350;6.684;2023-08-06T13:18:42;24.99;-6.00
19340;HTU21D;9804;52.350;6.684;2023-08-06T13:21:08;25.24;-6.00
19340;HTU21D;9804;52.350;6.684;2023-08-06T13:23:33;25.32;-6.00
19340;HTU21D;9804;52.350;6.684;2023-08-06T13:25:59;25.52;-6.00
19340;HTU21D;9804;52.350;6.684;2023-08-06T13:28:24;25.83;-6.00
19340;HTU21D;9804;52.350;6.684;2023-08-06T13:30:49;25.67;-6.00
19340;HTU21D;9804;52.350;6.684;2023-08-06T13:33:15;25.12;-6.00
19340;HTU21D;9804;52.350;6.684;2023-08-06T13:35:40;24.83;-6.00
19340;HTU21D;9804;52.350;6.684;2023-08-06T13:38:06;25.24;-6.00
19340;HTU21D;9804;52.350;6.684;2023-08-06T13:40:33;24.76;-6.00
19340;HTU21D;9804;52.350;6.684;2023-08-06T13:42:59;24.89;-6.00
19340;HTU21D;9804;52.350;6.684;2023-08-06T13:45:24;24.85;-6.00
19340;HTU21D;9804;52.350;6.684;2023-08-06T13:47:50;24.54;-6.00
19340;HTU21D;9804;52.350;6.684;2023-08-06T13:50:15;24.38;-6.00
19340;HTU21D;9804;52.350;6.684;2023-08-06T13:52:41;24.58;-6.00
19340;HTU21D;9804;52.350;6.684;2023-08-06T13:55:06;24.98;-6.00
19340;HTU21D;9804;52.350;6.684;2023-08-06T13:57:33;25.32;-6.00
19340;HTU21D;9804;52.350;6.684;2023-08-06T13:59:59;25.17;-6.00
19340;HTU21D;9804;52.350;6.684;2023-08-06T14:02:24;24.88;-6.00
19340;HTU21D;9804;52.350;6.684;2023-08-06T14:04:51;24.19;-6.00
19340;HTU21D;9804;52.350;6.684;2023-08-06T14:07:16;24.30;-6.00
19340;HTU21D;9804;52.350;6.684;2023-08-06T14:09:42;24.14;-6.00
19340;HTU21D;9804;52.350;6.684;2023-08-06T14:12:09;23.92;-6.00
19340;HTU21D;9804;52.350;6.684;2023-08-06T14:14:34;22.56;-6.00
19340;HTU21D;9804;52.350;6.684;2023-08-06T14:17:00;22.29;-6.00
19340;HTU21D;9804;52.350;6.684;2023-08-06T14:19:26;21.84;-6.00
19340;HTU21D;9804;52.350;6.684;2023-08-06T14:21:51;20.57;-6.00
19340;HTU21D;9804;52.350;6.684;2023-08-06T14:24:16;20.14;118.99
19340;HTU21D;9804;52.350;6.684;2023-08-06T14:26:44;19.20;118.99
19340;HTU21D;9804;52.350;6.684;2023-08-06T14:29:09;18.99;118.99
19340;HTU21D;9804;52.350;6.684;2023-08-06T14:31:35;18.87;118.99
19340;HTU21D;9804;52.350;6.684;2023-08-06T14:34:00;18.62;118.99
19340;HTU21D;9804;52.350;6.684;2023-08-06T14:36:26;18.71;118.99
19340;HTU21D;9804;52.350;6.684;2023-08-06T14:38:51;18.61;118.99
19340;HTU21D;9804;52.350;6.684;2023-08-06T14:41:17;18.87;118.99
19340;HTU21D;9804;52.350;6.684;2023-08-06T14:43:42;18.70;118.99
19340;HTU21D;9804;52.350;6.684;2023-08-06T14:46:08;18.79;118.99
19340;HTU21D;9804;52.350;6.684;2023-08-06T14:48:33;18.96;118.99
19340;HTU21D;9804;52.350;6.684;2023-08-06T14:50:58;19.25;118.99
19340;HTU21D;9804;52.350;6.684;2023-08-06T14:53:24;19.10;118.99
19340;HTU21D;9804;52.350;6.684;2023-08-06T14:55:49;19.06;118.99
19340;HTU21D;9804;52.350;6.684;2023-08-06T14:58:15;19.06;118.99
19340;HTU21D;9804;52.350;6.684;2023-08-06T15:00:41;18.96;118.99
19340;HTU21D;9804;52.350;6.684;2023-08-06T15:03:06;18.87;118.99
19340;HTU21D;9804;52.350;6.684;2023-08-06T15:05:31;19.23;118.99
19340;HTU21D;9804;52.350;6.684;2023-08-06T15:07:57;19.06;118.99
19340;HTU21D;9804;52.350;6.684;2023-08-06T15:10:22;19.14;118.99
19340;HTU21D;9804;52.350;6.684;2023-08-06T15:12:48;18.72;118.99
19340;HTU21D;9804;52.350;6.684;2023-08-06T15:15:14;19.00;118.99
19340;HTU21D;9804;52.350;6.684;2023-08-06T15:17:40;18.93;118.99
19340;HTU21D;9804;52.350;6.684;2023-08-06T15:20:05;18.86;118.99